EW8328 Weather Reports


Display with metric or nautical units.
time (UTC)temp
F
wind
direction
speed
MPH
gust
MPH
rain 1hr
in
rain 24hr
in
rain mn
in
humidity
%
barometer
mb
20230128223303 41 249 4.0 9.0 0.00 0.00 0.00 95 1028.2
20230128222803 41 244 7.0 12.0 0.00 0.00 0.00 95 1028.1
20230128222305 41 247 6.0 12.0 0.00 0.00 0.00 95 1028.2
20230128221804 41 244 9.0 12.0 0.00 0.00 0.00 95 1028.2
20230128221303 41 254 6.0 13.0 0.00 0.00 0.00 95 1028.2
20230128220804 41 251 5.0 10.0 0.00 0.00 0.00 95 1028.2
20230128215803 41 253 6.0 12.0 0.00 0.00 0.00 95 1028.3
20230128215306 41 240 6.0 12.0 0.00 0.00 0.00 95 1028.3
20230128214303 41 256 2.0 8.0 0.00 0.00 0.00 95 1028.2
20230128213804 41 256 5.0 9.0 0.00 0.00 0.00 95 1028.3
20230128213303 41 253 5.0 10.0 0.00 0.00 0.00 95 1028.3
20230128212803 41 239 3.0 8.0 0.00 0.00 0.00 95 1028.3
20230128212305 41 242 5.0 12.0 0.00 0.00 0.00 95 1028.5
20230128211803 41 234 6.0 15.0 0.00 0.00 0.00 95 1028.6
20230128211304 41 237 6.0 10.0 0.00 0.00 0.00 95 1028.6
20230128210803 41 227 5.0 12.0 0.00 0.00 0.00 95 1028.7
20230128205805 41 253 7.0 12.0 0.00 0.00 0.00 95 1028.7
20230128205305 41 253 5.0 10.0 0.00 0.00 0.00 95 1028.8
20230128204803 41 240 5.0 9.0 0.00 0.00 0.00 95 1028.9
20230128203803 41 256 6.0 12.0 0.00 0.00 0.00 95 1028.8
20230128203304 41 249 5.0 9.0 0.00 0.00 0.00 95 1028.9
20230128202804 41 260 5.0 10.0 0.00 0.00 0.00 95 1029.1
20230128202306 41 256 7.0 14.0 0.00 0.00 0.00 95 1029.2
20230128201803 41 260 5.0 10.0 0.00 0.00 0.00 95 1029.0
20230128201304 41 268 5.0 9.0 0.00 0.00 0.00 95 1029.0
20230128200804 42 249 6.0 9.0 0.00 0.00 0.00 95 1029.0
20230128200304 42 248 5.0 9.0 0.00 0.00 0.00 95 1029.1
20230128195803 42 254 5.0 8.0 0.00 0.00 0.00 95 1029.2
20230128194804 42 253 5.0 8.0 0.00 0.00 0.00 95 1029.4
20230128194303 42 259 5.0 8.0 0.00 0.00 0.00 95 1029.4
20230128193303 42 267 5.0 8.0 0.00 0.00 0.00 95 1029.4
20230128192803 42 276 4.0 9.0 0.00 0.00 0.00 95 1029.4
20230128192306 42 267 3.0 8.0 0.00 0.00 0.00 95 1029.4
20230128191303 42 277 5.0 7.0 0.00 0.00 0.00 95 1029.5
20230128190803 42 268 4.0 9.0 0.00 0.00 0.00 95 1029.5
20230128190302 42 277 4.0 7.0 0.00 0.00 0.00 94 1029.5
20230128185803 42 275 3.0 7.0 0.00 0.00 0.00 94 1029.5
20230128184803 42 264 5.0 8.0 0.00 0.00 0.00 94 1029.4
20230128184303 42 265 4.0 9.0 0.00 0.00 0.00 94 1029.5
20230128183805 42 260 6.0 10.0 0.00 0.00 0.00 94 1029.5
20230128182804 42 260 5.0 9.0 0.00 0.00 0.00 94 1029.5
20230128182306 42 269 7.0 12.0 0.00 0.00 0.00 94 1029.4
20230128181803 42 253 6.0 10.0 0.00 0.00 0.00 94 1029.4
20230128180804 42 251 4.0 8.0 0.00 0.00 0.00 94 1029.3
20230128175804 42 254 3.0 5.0 0.00 0.00 0.00 93 1029.1
20230128175305 42 250 3.0 7.0 0.00 0.00 0.00 93 1029.1
20230128174803 42 245 3.0 5.0 0.00 0.00 0.00 93 1029.1
20230128173803 42 259 2.0 5.0 0.00 0.00 0.00 93 1029.2
20230128173303 42 264 3.0 7.0 0.00 0.00 0.00 93 1029.3
20230128172803 42 256 3.0 6.0 0.00 0.00 0.00 93 1029.5
20230128172306 42 267 2.0 9.0 0.00 0.00 0.00 93 1029.6
20230128171803 42 266 3.0 6.0 0.00 0.00 0.00 93 1029.6
20230128171303 42 262 3.0 6.0 0.00 0.00 0.00 93 1029.6
20230128170804 42 278 4.0 6.0 0.00 0.00 0.00 93 1029.7
20230128170303 42 266 4.0 7.0 0.00 0.00 0.00 92 1029.7
20230128165804 42 272 5.0 8.0 0.00 0.00 0.00 92 1029.6
20230128165306 42 272 5.0 9.0 0.00 0.00 0.00 92 1029.5
20230128164803 42 259 5.0 9.0 0.00 0.00 0.00 92 1029.5
20230128164302 42 258 5.0 8.0 0.00 0.00 0.00 92 1029.5
20230128163804 42 266 4.0 7.0 0.00 0.00 0.00 92 1029.5
20230128163302 42 251 4.0 8.0 0.00 0.00 0.00 92 1029.5
20230128162803 42 256 4.0 8.0 0.00 0.00 0.00 91 1029.5
20230128162305 42 264 2.0 7.0 0.00 0.00 0.00 91 1029.4
20230128161803 42 262 3.0 7.0 0.00 0.00 0.00 91 1029.5
20230128161304 42 227 5.0 9.0 0.00 0.00 0.00 91 1029.5
20230128160803 42 249 2.0 7.0 0.00 0.00 0.00 91 1029.5
20230128160303 42 234 3.0 6.0 0.00 0.00 0.00 91 1029.5
20230128155804 43 245 3.0 7.0 0.00 0.00 0.00 91 1029.6
20230128155306 43 226 3.0 6.0 0.00 0.00 0.00 91 1029.7
20230128154803 43 212 3.0 6.0 0.00 0.00 0.00 91 1029.7
20230128154302 43 231 4.0 7.0 0.00 0.00 0.00 91 1029.9
20230128153803 43 252 3.0 7.0 0.00 0.00 0.00 91 1029.9
20230128153302 43 230 5.0 12.0 0.00 0.00 0.00 91 1029.9
20230128152803 42 238 4.0 7.0 0.00 0.00 0.00 91 1029.9
20230128151803 42 249 4.0 8.0 0.00 0.00 0.00 92 1029.9
20230128151302 42 258 3.0 5.0 0.00 0.00 0.00 92 1029.9
20230128150303 42 238 3.0 5.0 0.00 0.00 0.00 92 1029.9
20230128145803 42 257 3.0 6.0 0.00 0.00 0.00 92 1029.8
20230128145305 42 278 4.0 8.0 0.00 0.00 0.00 92 1029.8
20230128144802 42 267 5.0 8.0 0.00 0.00 0.00 92 1029.8
20230128144302 42 260 5.0 9.0 0.00 0.00 0.00 92 1029.7
20230128143802 42 253 5.0 9.0 0.00 0.00 0.00 92 1029.6
20230128142803 42 264 5.0 10.0 0.00 0.00 0.00 92 1029.6
20230128142305 42 254 5.0 8.0 0.00 0.00 0.00 92 1029.6
20230128141804 42 255 6.0 8.0 0.00 0.00 0.00 92 1029.7
20230128141303 42 289 5.0 10.0 0.00 0.00 0.00 92 1029.8
20230128140803 42 283 3.0 9.0 0.00 0.00 0.00 91 1029.8
20230128140303 42 287 3.0 5.0 0.00 0.00 0.00 91 1029.8
20230128135803 42 275 4.0 8.0 0.00 0.00 0.00 91 1029.7
20230128135305 42 266 5.0 8.0 0.00 0.00 0.00 91 1029.8
20230128134802 42 267 3.0 7.0 0.00 0.00 0.00 91 1029.8
20230128133803 42 268 4.0 7.0 0.00 0.00 0.00 91 1029.8
20230128133302 42 258 5.0 9.0 0.00 0.00 0.00 91 1029.9
20230128132803 42 271 4.0 9.0 0.00 0.00 0.00 91 1030.0
20230128132306 42 277 3.0 7.0 0.00 0.00 0.00 91 1030.1
20230128131803 42 272 3.0 6.0 0.00 0.00 0.00 91 1030.1
20230128131304 42 289 3.0 6.0 0.00 0.00 0.00 91 1030.1
20230128130803 42 288 3.0 7.0 0.00 0.00 0.00 91 1030.1
20230128130302 42 280 3.0 6.0 0.00 0.00 0.00 91 1030.1
20230128125803 42 295 3.0 6.0 0.00 0.00 0.00 91 1030.0
20230128124803 42 300 3.0 5.0 0.00 0.00 0.00 90 1030.2
20230128124304 42 308 5.0 5.0 0.00 0.00 0.00 90 1030.2
20230128123804 42 308 5.0 8.0 0.00 0.00 0.00 90 1030.2
20230128123303 42 287 3.0 3.0 0.00 0.00 0.00 91 1030.2
20230128122802 42 250 3.0 7.0 0.00 0.00 0.00 91 1030.2
20230128122305 42 243 6.0 10.0 0.00 0.00 0.00 91 1030.3
20230128121804 42 256 5.0 9.0 0.00 0.00 0.00 92 1030.2
20230128121303 41 271 5.0 8.0 0.00 0.00 0.00 91 1030.4
20230128120802 41 274 5.0 7.0 0.00 0.00 0.00 92 1030.5
20230128120302 41 265 5.0 9.0 0.00 0.00 0.00 91 1030.5
20230128115802 41 277 3.0 8.0 0.00 0.00 0.00 91 1030.6
20230128114804 41 299 4.0 7.0 0.00 0.00 0.00 91 1030.7
20230128114303 41 279 5.0 9.0 0.00 0.00 0.00 91 1030.7
20230128113803 41 297 4.0 8.0 0.00 0.00 0.00 91 1030.8
20230128113302 41 282 5.0 9.0 0.00 0.00 0.00 91 1030.8
20230128112803 42 279 5.0 10.0 0.00 0.00 0.00 90 1031.0
20230128112305 42 275 6.0 12.0 0.00 0.00 0.00 90 1031.0
20230128111802 42 278 4.0 8.0 0.00 0.00 0.00 91 1031.0
20230128111302 41 267 5.0 12.0 0.00 0.00 0.00 91 1031.1
20230128110804 41 260 6.0 9.0 0.00 0.00 0.00 91 1031.4
20230128110302 41 301 4.0 8.0 0.00 0.00 0.00 91 1031.5
20230128105804 40 293 6.0 12.0 0.00 0.00 0.00 91 1031.5
20230128105305 40 300 5.0 8.0 0.00 0.00 0.00 92 1031.5
20230128104803 40 294 6.0 12.0 0.00 0.00 0.00 92 1031.4
20230128104302 40 287 5.0 10.0 0.00 0.00 0.00 92 1031.4
20230128103304 39 290 5.0 8.0 0.00 0.00 0.00 92 1031.3
20230128101302 39 290 3.0 6.0 0.00 0.00 0.00 92 1031.3
20230128100802 38 266 4.0 8.0 0.00 0.00 0.00 92 1031.1
20230128100302 38 266 3.0 9.0 0.00 0.00 0.00 92 1031.1
20230128095803 38 264 5.0 10.0 0.00 0.00 0.00 92 1031.1
20230128095306 38 270 3.0 8.0 0.00 0.00 0.00 92 1031.0
20230128094802 38 284 3.0 6.0 0.00 0.00 0.00 92 1031.0
20230128094302 38 281 3.0 7.0 0.00 0.00 0.00 92 1030.9
20230128093802 38 287 4.0 7.0 0.00 0.00 0.00 93 1030.8
20230128092802 38 281 4.0 7.0 0.00 0.00 0.00 93 1030.8
20230128092305 38 282 3.0 8.0 0.00 0.00 0.00 93 1030.7
20230128091804 37 290 3.0 8.0 0.00 0.00 0.00 93 1030.7
20230128091302 37 278 3.0 6.0 0.00 0.00 0.00 93 1030.7
20230128090803 37 266 5.0 7.0 0.00 0.00 0.00 93 1030.5
20230128085802 36 272 2.0 3.0 0.00 0.00 0.00 93 1030.7
20230128085306 36 251 3.0 5.0 0.00 0.00 0.00 92 1030.7
20230128084802 36 262 1.0 3.0 0.00 0.00 0.00 92 1030.6
20230128084302 36 242 1.0 3.0 0.00 0.00 0.00 92 1030.5
20230128083802 36 260 0.0 1.0 0.00 0.00 0.00 92 1030.5
20230128083302 36 260 1.0 3.0 0.00 0.00 0.00 92 1030.5
20230128082803 36 238 2.0 3.0 0.00 0.00 0.00 92 1030.5
20230128082305 36 234 2.0 5.0 0.00 0.00 0.00 92 1030.4
20230128081302 36 294 2.0 5.0 0.00 0.00 0.00 92 1030.4
20230128080802 36 305 5.0 6.0 0.00 0.00 0.00 92 1030.3
20230128080303 36 305 5.0 6.0 0.00 0.00 0.00 92 1030.3
20230128075802 36 305 4.0 7.0 0.00 0.00 0.00 92 1030.4
20230128075306 36 309 5.0 6.0 0.00 0.00 0.00 92 1030.4
20230128074802 36 310 5.0 7.0 0.00 0.00 0.00 92 1030.5
20230128074302 36 309 5.0 7.0 0.00 0.00 0.00 92 1030.5
20230128073803 36 307 3.0 5.0 0.00 0.00 0.00 92 1030.6
20230128073304 36 301 3.0 5.0 0.00 0.00 0.00 92 1030.6
20230128072802 36 296 3.0 5.0 0.00 0.00 0.00 92 1030.6
20230128072305 36 297 3.0 5.0 0.00 0.00 0.00 92 1030.7
20230128071803 36 305 4.0 6.0 0.00 0.00 0.00 92 1030.7
20230128071302 36 304 3.0 6.0 0.00 0.00 0.00 92 1030.7
20230128070302 36 304 5.0 6.0 0.00 0.00 0.00 92 1030.7
20230128065802 36 309 3.0 5.0 0.00 0.00 0.00 92 1030.6
20230128065305 36 306 3.0 6.0 0.00 0.00 0.00 92 1030.6
20230128064802 36 301 3.0 6.0 0.00 0.00 0.00 92 1030.7
20230128064302 36 300 5.0 6.0 0.00 0.00 0.00 92 1030.6
20230128063803 36 308 4.0 7.0 0.00 0.00 0.00 92 1030.5
20230128063302 36 311 3.0 5.0 0.00 0.00 0.00 92 1030.5
20230128062802 36 308 4.0 6.0 0.00 0.00 0.00 91 1030.6
20230128062305 36 309 3.0 6.0 0.00 0.00 0.00 91 1030.5
20230128061802 36 310 3.0 5.0 0.00 0.00 0.00 91 1030.4
20230128061304 36 305 3.0 6.0 0.00 0.00 0.00 91 1030.3
20230128060804 36 305 4.0 6.0 0.00 0.00 0.00 91 1030.3
20230128060303 36 310 4.0 5.0 0.00 0.00 0.00 91 1030.3
20230128055803 36 306 4.0 7.0 0.00 0.00 0.00 91 1030.3
20230128055305 36 306 5.0 6.0 0.00 0.00 0.00 91 1030.2
20230128054302 36 306 3.0 6.0 0.00 0.00 0.00 91 1030.3
20230128053302 36 307 3.0 6.0 0.00 0.00 0.00 91 1030.2
20230128052305 36 312 3.0 6.0 0.00 0.00 0.00 90 1030.2
20230128051802 36 308 3.0 5.0 0.00 0.00 0.00 90 1030.3
20230128051302 36 307 3.0 5.0 0.00 0.00 0.00 90 1030.2
20230128050802 36 313 3.0 6.0 0.00 0.00 0.00 90 1030.3
20230128050301 37 311 5.0 6.0 0.00 0.00 0.00 90 1030.4
20230128045305 37 295 3.0 6.0 0.00 0.00 0.00 90 1030.3
20230128044802 37 302 4.0 7.0 0.00 0.00 0.00 90 1030.5
20230128043802 37 295 5.0 8.0 0.00 0.00 0.00 90 1030.4
20230128043302 37 305 5.0 8.0 0.00 0.00 0.00 90 1030.2
20230128042802 37 297 5.0 8.0 0.00 0.00 0.00 91 1030.1
20230128042305 37 299 5.0 6.0 0.00 0.00 0.00 91 1030.1
20230128041802 37 294 3.0 6.0 0.00 0.00 0.00 91 1029.9
20230128041302 37 298 4.0 7.0 0.00 0.00 0.00 91 1030.0
20230128040802 37 295 4.0 7.0 0.00 0.00 0.00 91 1029.9
20230128035802 37 290 3.0 7.0 0.00 0.00 0.00 91 1029.9
20230128035302 37 281 3.0 8.0 0.00 0.00 0.00 91 1030.0
20230128034803 37 264 5.0 10.0 0.00 0.00 0.00 92 1029.8
20230128034301 37 281 5.0 9.0 0.00 0.00 0.00 92 1030.0
20230128033802 37 285 4.0 8.0 0.00 0.00 0.00 92 1029.9
20230128033302 37 284 4.0 7.0 0.00 0.00 0.00 92 1029.9
20230128032802 37 280 4.0 8.0 0.00 0.00 0.00 92 1029.7
20230128032305 37 272 4.0 10.0 0.00 0.00 0.00 91 1029.8
20230128031802 37 276 4.0 8.0 0.00 0.00 0.00 91 1029.9
20230128031301 37 269 3.0 10.0 0.00 0.00 0.00 91 1029.8
20230128030804 37 281 4.0 10.0 0.00 0.00 0.00 91 1029.8
20230128030302 37 264 4.0 8.0 0.00 0.00 0.00 91 1029.8
20230128025803 37 267 3.0 6.0 0.00 0.00 0.00 91 1029.8
20230128025305 37 269 3.0 7.0 0.00 0.00 0.00 91 1029.7
20230128024803 37 275 3.0 6.0 0.00 0.00 0.00 91 1029.7
20230128023802 37 287 3.0 6.0 0.00 0.00 0.00 91 1029.7
20230128023303 37 279 2.0 7.0 0.00 0.00 0.00 91 1029.8
20230128022802 37 256 3.0 7.0 0.00 0.00 0.00 91 1029.8
20230128022305 37 258 3.0 5.0 0.00 0.00 0.00 91 1029.8
20230128021803 37 240 4.0 7.0 0.00 0.00 0.00 91 1029.8
20230128021303 37 243 3.0 6.0 0.00 0.00 0.00 91 1029.9
20230128020802 37 255 4.0 6.0 0.00 0.00 0.00 91 1029.9
20230128020303 37 277 3.0 7.0 0.00 0.00 0.00 90 1029.8
20230128015305 37 283 3.0 6.0 0.00 0.00 0.00 90 1029.7
20230128014802 37 266 5.0 7.0 0.00 0.00 0.00 90 1029.7
20230128013802 37 254 5.0 10.0 0.00 0.01 0.00 90 1029.8
20230128013303 37 249 4.0 8.0 0.00 0.01 0.00 90 1030.0
20230128012802 37 250 6.0 10.0 0.00 0.02 0.00 90 1030.0
20230128012301 37 252 4.0 10.0 0.00 0.02 0.00 90 1030.1
20230128011802 37 268 6.0 10.0 0.00 0.02 0.00 89 1030.1
20230128011302 37 260 4.0 9.0 0.00 0.02 0.00 89 1030.2
20230128010804 37 274 3.0 6.0 0.00 0.02 0.00 89 1030.3
20230128010304 37 289 2.0 5.0 0.00 0.02 0.00 89 1030.3
20230128005803 37 278 3.0 7.0 0.00 0.02 0.00 89 1030.3
20230128005305 37 267 5.0 9.0 0.00 0.02 0.00 89 1030.3
20230128004302 37 259 6.0 12.0 0.00 0.02 0.00 89 1030.3
20230128003802 37 257 6.0 10.0 0.00 0.02 0.00 90 1030.2
20230128003301 37 262 5.0 9.0 0.00 0.02 0.00 90 1030.4
20230128002306 37 259 3.0 7.0 0.00 0.02 0.00 90 1030.3
20230128001802 37 284 3.0 6.0 0.00 0.02 0.00 90 1030.3
20230127235807 37 292 3.0 5.0 0.00 0.02 0.02 90 1030.6
20230127235305 37 261 3.0 6.0 0.00 0.02 0.02 90 1030.6
20230127234802 37 250 5.0 8.0 0.00 0.02 0.02 90 1030.5
20230127234304 37 255 5.0 7.0 0.00 0.02 0.02 90 1030.5
20230127233802 37 261 2.0 5.0 0.00 0.02 0.02 90 1030.7
20230127233302 37 294 2.0 3.0 0.00 0.02 0.02 90 1030.8
20230127232305 37 294 2.0 3.0 0.00 0.02 0.02 90 1031.0
20230127231802 37 318 2.0 3.0 0.00 0.02 0.02 90 1031.1
20230127230803 37 283 2.0 5.0 0.00 0.02 0.02 90 1031.0
20230127225803 37 221 2.0 3.0 0.00 0.02 0.02 90 1031.1
20230127225305 37 217 1.0 2.0 0.00 0.02 0.02 90 1031.1
20230127224802 37 221 1.0 7.0 0.00 0.02 0.02 90 1031.1
20230127224303 37 245 1.0 3.0 0.00 0.02 0.02 90 1031.0
20230127223802 36 191 0.0 2.0 0.00 0.02 0.02 90 1031.0